createdAt,value
2018-07-04T00:01:32.676Z,16.40
2018-07-04T00:03:36.078Z,15.43
2018-07-04T00:05:38.954Z,14.70
2018-07-04T00:07:41.836Z,14.40
2018-07-04T00:09:45.344Z,15.13
2018-07-04T00:11:48.419Z,15.27
2018-07-04T00:13:51.413Z,13.40
2018-07-04T00:15:54.287Z,13.63
2018-07-04T00:17:57.288Z,12.37
2018-07-04T00:20:00.264Z,12.60
2018-07-04T00:22:03.324Z,12.90
2018-07-04T00:24:06.640Z,11.50
2018-07-04T00:26:09.602Z,12.87
2018-07-04T00:28:12.617Z,11.63
2018-07-04T00:30:18.239Z,14.07
2018-07-04T00:32:21.961Z,10.73
2018-07-04T00:34:25.090Z,11.83
2018-07-04T00:36:28.396Z,32.43
2018-07-04T00:38:31.644Z,23.80
2018-07-04T00:40:34.718Z,23.07
2018-07-04T00:42:37.477Z,22.23
2018-07-04T00:44:40.983Z,28.50
2018-07-04T00:46:44.362Z,17.80
2018-07-04T00:48:47.884Z,19.90
2018-07-04T00:50:50.963Z,23.17
2018-07-04T00:52:53.937Z,16.10
2018-07-04T00:54:57.024Z,22.73
2018-07-04T00:57:00.054Z,51.90
2018-07-04T00:59:02.956Z,57.30
2018-07-04T01:01:06.112Z,90.93
2018-07-04T01:03:09.047Z,50.90
2018-07-04T01:05:11.594Z,29.97
2018-07-04T01:07:14.502Z,50.63
2018-07-04T01:09:17.612Z,49.20
2018-07-04T01:11:20.535Z,29.87
2018-07-04T01:13:24.183Z,24.90
2018-07-04T01:15:27.394Z,24.23
2018-07-04T01:17:30.224Z,25.40
2018-07-04T01:19:32.960Z,25.23
2018-07-04T01:21:36.225Z,551.87
2018-07-04T01:23:39.578Z,461.97
2018-07-04T01:25:42.424Z,108.27
2018-07-04T01:27:45.646Z,100.30
2018-07-04T01:29:48.855Z,89.37
2018-07-04T01:31:52.095Z,53.30
2018-07-04T01:33:55.242Z,41.83
2018-07-04T01:35:58.670Z,37.80
2018-07-04T01:38:01.864Z,38.37
2018-07-04T01:40:05.039Z,34.87
2018-07-04T01:42:08.293Z,35.53
2018-07-04T01:44:11.389Z,30.93
2018-07-04T01:46:14.869Z,31.40
2018-07-04T01:48:17.558Z,28.20
2018-07-04T01:50:20.309Z,26.57
2018-07-04T01:52:23.231Z,27.07
2018-07-04T01:54:26.323Z,26.43
2018-07-04T01:56:29.199Z,24.50
2018-07-04T01:58:32.262Z,23.93
2018-07-04T02:00:35.663Z,22.87
2018-07-04T02:02:38.647Z,23.77
2018-07-04T02:04:41.553Z,18.93
2018-07-04T02:06:44.729Z,21.90
2018-07-04T02:08:47.808Z,20.90
2018-07-04T02:10:50.748Z,22.53
2018-07-04T02:12:53.565Z,20.10
2018-07-04T02:14:56.615Z,21.50
2018-07-04T02:16:59.701Z,17.57
2018-07-04T02:19:02.529Z,18.50
2018-07-04T02:21:06.203Z,20.90
2018-07-04T02:23:09.301Z,18.87
2018-07-04T02:25:12.385Z,17.73
2018-07-04T02:27:15.506Z,18.27
2018-07-04T02:29:18.767Z,15.17
2018-07-04T02:31:21.764Z,15.90
2018-07-04T02:33:25.252Z,14.90
2018-07-04T02:35:28.149Z,17.00
2018-07-04T02:37:30.985Z,14.63
2018-07-04T02:39:34.375Z,13.57
2018-07-04T02:41:37.502Z,14.20
2018-07-04T02:43:40.569Z,12.53
2018-07-04T02:45:43.865Z,13.23
2018-07-04T02:47:47.039Z,11.70
2018-07-04T02:49:50.352Z,12.40
2018-07-04T02:51:53.622Z,14.07
2018-07-04T02:53:56.642Z,11.20
2018-07-04T02:55:59.860Z,13.30
2018-07-04T02:58:02.679Z,10.77
2018-07-04T03:00:05.984Z,10.30
2018-07-04T03:02:09.371Z,10.13
2018-07-04T03:04:12.654Z,10.00
2018-07-04T03:06:15.719Z,8.93
2018-07-04T03:08:18.963Z,9.80
2018-07-04T03:10:22.422Z,8.77
2018-07-04T03:12:25.325Z,9.23
2018-07-04T03:14:28.500Z,9.58
2018-07-04T03:16:31.577Z,9.30
2018-07-04T03:18:34.566Z,9.40
2018-07-04T03:20:37.703Z,10.50
2018-07-04T03:22:42.103Z,11.33
2018-07-04T03:24:45.279Z,9.30
2018-07-04T03:26:48.856Z,11.00
2018-07-04T03:28:52.263Z,10.83
2018-07-04T03:30:55.844Z,10.18
2018-07-04T03:32:58.858Z,10.07
2018-07-04T03:35:02.049Z,9.60
2018-07-04T03:37:05.103Z,8.97
2018-07-04T03:39:08.532Z,10.30
2018-07-04T03:41:12.020Z,8.57
2018-07-04T03:43:15.399Z,12.07
2018-07-04T03:45:18.473Z,8.40
2018-07-04T03:47:21.857Z,9.50
2018-07-04T03:49:24.900Z,8.10
2018-07-04T03:51:28.265Z,7.47
2018-07-04T03:53:31.326Z,8.43
2018-07-04T03:55:34.208Z,8.90
2018-07-04T03:57:37.019Z,8.97
2018-07-04T03:59:39.786Z,8.20
2018-07-04T04:01:42.419Z,8.40
2018-07-04T04:03:45.412Z,8.77
2018-07-04T04:05:48.712Z,8.87
2018-07-04T04:07:51.814Z,8.23
2018-07-04T04:09:54.892Z,9.00
2018-07-04T04:11:58.174Z,9.20
2018-07-04T04:14:01.269Z,9.40
2018-07-04T04:16:04.665Z,8.80
2018-07-04T04:18:07.911Z,9.00
2018-07-04T04:20:11.429Z,10.90
2018-07-04T04:22:15.292Z,8.80
2018-07-04T04:24:19.258Z,11.57
2018-07-04T04:26:22.440Z,8.80
2018-07-04T04:28:25.505Z,9.77
2018-07-04T04:30:28.409Z,9.80
2018-07-04T04:32:31.370Z,8.33
2018-07-04T04:34:34.475Z,8.60
2018-07-04T04:36:37.724Z,9.37
2018-07-04T04:38:40.500Z,8.70
2018-07-04T04:40:43.436Z,8.10
2018-07-04T04:42:46.742Z,8.27
2018-07-04T04:44:49.599Z,8.23
2018-07-04T04:46:52.612Z,8.33
2018-07-04T04:48:55.878Z,8.77
2018-07-04T04:50:59.057Z,10.17
2018-07-04T04:53:02.370Z,9.63
2018-07-04T04:55:05.336Z,7.90
2018-07-04T04:57:08.407Z,8.33
2018-07-04T04:59:12.527Z,7.60
2018-07-04T05:01:15.506Z,8.80
2018-07-04T05:03:18.291Z,8.20
2018-07-04T05:05:20.755Z,7.90
2018-07-04T05:07:23.618Z,7.70
2018-07-04T05:09:26.524Z,8.07
2018-07-04T05:11:29.751Z,8.00
2018-07-04T05:13:32.335Z,9.37
2018-07-04T05:15:35.543Z,8.00
2018-07-04T05:17:38.891Z,7.90
2018-07-04T05:19:42.168Z,9.60
2018-07-04T05:21:45.772Z,8.63
2018-07-04T05:23:49.186Z,8.97
2018-07-04T05:25:52.169Z,7.07
2018-07-04T05:27:55.162Z,9.13
2018-07-04T05:29:58.195Z,7.47
2018-07-04T05:32:00.882Z,8.30
2018-07-04T05:34:03.863Z,8.23
2018-07-04T05:36:06.848Z,7.27
2018-07-04T05:38:09.776Z,7.43
2018-07-04T05:40:12.557Z,9.70
2018-07-04T05:42:15.617Z,6.50
2018-07-04T05:44:18.680Z,6.83
2018-07-04T05:46:21.763Z,6.73
2018-07-04T05:48:24.528Z,6.67
2018-07-04T05:50:27.728Z,7.33
2018-07-04T05:52:30.304Z,6.80
2018-07-04T05:54:32.899Z,6.80
2018-07-04T05:56:35.874Z,8.03
2018-07-04T05:58:39.362Z,6.77
2018-07-04T06:00:42.749Z,6.80
2018-07-04T06:02:45.775Z,6.17
2018-07-04T06:04:49.291Z,6.77
2018-07-04T06:06:52.405Z,7.60
2018-07-04T06:08:55.508Z,6.77
2018-07-04T06:10:58.748Z,6.40
2018-07-04T06:13:02.324Z,5.90
2018-07-04T06:15:05.111Z,6.60
2018-07-04T06:17:08.266Z,6.37
2018-07-04T06:19:11.157Z,6.27
2018-07-04T06:21:14.952Z,7.57
2018-07-04T06:23:18.059Z,6.37
2018-07-04T06:25:21.516Z,5.53
2018-07-04T06:27:25.226Z,6.00
2018-07-04T06:29:28.202Z,6.20
2018-07-04T06:31:31.186Z,5.50
2018-07-04T06:33:34.202Z,6.03
2018-07-04T06:35:37.253Z,5.70
2018-07-04T06:37:40.187Z,8.93
2018-07-04T06:39:42.895Z,6.00
2018-07-04T06:41:45.998Z,6.10
2018-07-04T06:43:49.255Z,5.87
2018-07-04T06:45:52.336Z,6.43
2018-07-04T06:47:55.161Z,5.37
2018-07-04T06:49:58.246Z,5.53
2018-07-04T06:52:01.421Z,4.90
2018-07-04T06:54:04.339Z,6.17
2018-07-04T06:56:07.505Z,5.53
2018-07-04T06:58:10.577Z,6.00
2018-07-04T07:00:13.104Z,4.63
2018-07-04T07:02:16.473Z,6.57
2018-07-04T07:04:19.420Z,6.10
2018-07-04T07:06:22.300Z,5.17
2018-07-04T07:08:25.244Z,5.30
2018-07-04T07:10:28.273Z,6.10
2018-07-04T07:12:31.265Z,5.40
2018-07-04T07:14:34.556Z,5.50
2018-07-04T07:16:37.248Z,4.43
2018-07-04T07:18:40.112Z,4.80
2018-07-04T07:20:43.045Z,4.70
2018-07-04T07:22:45.959Z,5.07
2018-07-04T07:24:49.053Z,4.97
2018-07-04T07:26:52.035Z,7.17
2018-07-04T07:28:55.132Z,4.63
2018-07-04T07:30:58.108Z,4.27
2018-07-04T07:33:00.995Z,4.60
2018-07-04T07:35:03.888Z,5.30
2018-07-04T07:37:07.075Z,4.50
2018-07-04T07:39:10.303Z,5.20
2018-07-04T07:41:13.120Z,5.10
2018-07-04T07:43:15.872Z,5.97
2018-07-04T07:45:19.010Z,4.97
2018-07-04T07:47:21.775Z,6.90
2018-07-04T07:49:24.917Z,4.83
2018-07-04T07:51:27.979Z,4.23
2018-07-04T07:53:30.702Z,4.67
2018-07-04T07:55:33.620Z,4.30
2018-07-04T07:57:37.306Z,3.90
2018-07-04T07:59:40.190Z,5.13
2018-07-04T08:01:42.906Z,5.53
2018-07-04T08:03:45.902Z,4.63
2018-07-04T08:05:49.154Z,4.63
2018-07-04T08:07:51.897Z,4.90
2018-07-04T08:09:54.800Z,6.57
2018-07-04T08:11:57.982Z,4.70
2018-07-04T08:14:01.174Z,5.30
2018-07-04T08:16:04.372Z,4.77
2018-07-04T08:18:07.445Z,4.13
2018-07-04T08:20:10.083Z,4.97
2018-07-04T08:22:12.837Z,5.47
2018-07-04T08:24:16.015Z,4.23
2018-07-04T08:26:19.227Z,5.40
2018-07-04T08:28:22.157Z,4.27
2018-07-04T08:30:25.546Z,6.80
2018-07-04T08:32:28.511Z,4.73
2018-07-04T08:34:31.626Z,4.40
2018-07-04T08:36:34.912Z,4.90
2018-07-04T08:38:37.803Z,5.57
2018-07-04T08:40:41.102Z,4.97
2018-07-04T08:42:44.171Z,3.77
2018-07-04T08:44:47.353Z,3.83
2018-07-04T08:46:50.258Z,4.63
2018-07-04T08:48:52.850Z,4.30
2018-07-04T08:50:56.023Z,4.27
2018-07-04T08:52:59.233Z,4.50
2018-07-04T08:55:02.065Z,4.27
2018-07-04T08:57:05.064Z,4.30
2018-07-04T08:59:08.143Z,3.77
2018-07-04T09:01:10.925Z,5.00
2018-07-04T09:03:14.019Z,3.87
2018-07-04T09:05:17.405Z,5.83
2018-07-04T09:07:20.341Z,4.63
2018-07-04T09:09:24.424Z,3.58
2018-07-04T09:11:27.486Z,4.03
2018-07-04T09:13:30.388Z,3.83
2018-07-04T09:15:33.257Z,3.70
2018-07-04T09:17:36.111Z,5.03
2018-07-04T09:19:38.797Z,3.90
2018-07-04T09:21:41.894Z,3.73
2018-07-04T09:23:44.877Z,3.10
2018-07-04T09:25:47.812Z,4.16
2018-07-04T09:27:50.633Z,3.73
2018-07-04T09:29:53.918Z,4.13
2018-07-04T09:31:57.096Z,4.97
2018-07-04T09:33:59.916Z,4.33
2018-07-04T09:36:02.987Z,3.83
2018-07-04T09:38:06.571Z,3.47
2018-07-04T09:40:09.506Z,3.97
2018-07-04T09:42:12.430Z,4.43
2018-07-04T09:44:16.420Z,4.13
2018-07-04T09:46:19.239Z,3.67
2018-07-04T09:48:23.273Z,4.50
2018-07-04T09:50:26.411Z,3.80
2018-07-04T09:52:29.405Z,5.40
2018-07-04T09:54:32.344Z,4.17
2018-07-04T09:56:35.354Z,3.37
2018-07-04T09:58:38.457Z,3.83
2018-07-04T10:00:41.545Z,3.97
2018-07-04T10:02:44.878Z,3.70
2018-07-04T10:04:48.284Z,3.70
2018-07-04T10:06:51.009Z,3.20
2018-07-04T10:08:53.743Z,3.93
2018-07-04T10:10:56.688Z,3.07
2018-07-04T10:12:59.485Z,4.30
2018-07-04T10:15:02.858Z,3.40
2018-07-04T10:17:05.704Z,3.70
2018-07-04T10:19:08.693Z,3.43
2018-07-04T10:21:11.921Z,3.60
2018-07-04T10:23:15.380Z,6.00
2018-07-04T10:25:18.482Z,3.83
2018-07-04T10:27:21.445Z,5.00
2018-07-04T10:29:24.520Z,5.13
2018-07-04T10:31:27.639Z,5.33
2018-07-04T10:33:30.324Z,5.67
2018-07-04T10:35:33.423Z,25.13
2018-07-04T10:37:36.270Z,23.03
2018-07-04T10:39:39.546Z,11.20
2018-07-04T10:41:42.720Z,9.20
2018-07-04T10:43:45.613Z,10.77
2018-07-04T10:45:48.656Z,6.63
2018-07-04T10:47:51.611Z,8.93
2018-07-04T10:49:54.695Z,7.03
2018-07-04T10:51:57.966Z,7.50
2018-07-04T10:54:01.354Z,5.60
2018-07-04T10:56:04.546Z,7.20
2018-07-04T10:58:07.973Z,7.47
2018-07-04T11:00:10.710Z,7.83
2018-07-04T11:02:13.894Z,6.10
2018-07-04T11:04:16.949Z,6.77
2018-07-04T11:06:19.888Z,5.30
2018-07-04T11:08:22.568Z,6.07
2018-07-04T11:10:25.510Z,8.93
2018-07-04T11:12:28.422Z,6.00
2018-07-04T11:14:31.499Z,7.93
2018-07-04T11:16:34.139Z,7.17
2018-07-04T11:18:37.318Z,4.97
2018-07-04T11:20:40.439Z,6.53
2018-07-04T11:22:43.278Z,5.47
2018-07-04T11:24:46.516Z,5.30
2018-07-04T11:26:49.599Z,5.13
2018-07-04T11:28:52.916Z,5.10
2018-07-04T11:30:55.869Z,6.07
2018-07-04T11:32:59.843Z,6.00
2018-07-04T11:35:02.793Z,6.70
2018-07-04T11:37:05.879Z,5.30
2018-07-04T11:39:09.036Z,6.00
2018-07-04T11:41:12.438Z,5.47
2018-07-04T11:43:15.511Z,5.90
2018-07-04T11:45:18.502Z,4.93
2018-07-04T11:47:21.309Z,5.40
2018-07-04T11:49:24.382Z,4.95
2018-07-04T11:51:27.297Z,7.10
2018-07-04T11:53:30.230Z,5.80
2018-07-04T11:55:33.069Z,4.70
2018-07-04T11:57:36.088Z,5.27
2018-07-04T11:59:39.209Z,5.23
2018-07-04T12:01:42.427Z,6.30
2018-07-04T12:03:45.545Z,4.70
2018-07-04T12:05:48.525Z,5.33
2018-07-04T12:07:51.590Z,4.30
2018-07-04T12:09:54.771Z,4.27
2018-07-04T12:11:57.767Z,6.57
2018-07-04T12:14:01.033Z,5.20
2018-07-04T12:16:03.937Z,7.53
2018-07-04T12:18:06.909Z,6.03
2018-07-04T12:20:09.791Z,5.97
2018-07-04T12:22:12.723Z,4.90
2018-07-04T12:24:15.759Z,5.83
2018-07-04T12:26:18.990Z,4.90
2018-07-04T12:28:22.479Z,5.57
2018-07-04T12:30:25.791Z,4.80
2018-07-04T12:32:28.933Z,5.27
2018-07-04T12:34:31.947Z,5.20
2018-07-04T12:36:35.036Z,6.00
2018-07-04T12:38:38.109Z,6.07
2018-07-04T12:40:40.891Z,5.87
2018-07-04T12:42:43.576Z,6.47
2018-07-04T12:44:46.349Z,7.80
2018-07-04T12:46:50.891Z,6.83
2018-07-04T12:48:53.842Z,5.13
2018-07-04T12:50:57.270Z,4.40
2018-07-04T12:53:00.008Z,4.53
2018-07-04T12:55:02.795Z,5.37
2018-07-04T12:57:06.006Z,5.20
2018-07-04T12:59:09.315Z,4.77
2018-07-04T13:01:11.900Z,5.80
2018-07-04T13:03:14.843Z,5.00
2018-07-04T13:05:18.204Z,5.87
2018-07-04T13:07:20.915Z,5.17
2018-07-04T13:09:24.116Z,5.07
2018-07-04T13:11:26.819Z,5.47
2018-07-04T13:13:29.450Z,4.27
2018-07-04T13:15:32.533Z,4.20
2018-07-04T13:17:35.464Z,4.60
2018-07-04T13:19:38.423Z,4.80
2018-07-04T13:21:41.500Z,4.30
2018-07-04T13:23:44.447Z,4.43
2018-07-04T13:25:47.488Z,8.53
2018-07-04T13:27:50.552Z,5.20
2018-07-04T13:29:53.443Z,4.80
2018-07-04T13:31:56.537Z,4.13
2018-07-04T13:33:59.630Z,5.07
2018-07-04T13:36:02.469Z,5.20
2018-07-04T13:38:05.036Z,5.97
2018-07-04T13:40:08.070Z,6.13
2018-07-04T13:42:11.241Z,7.43
2018-07-04T13:44:15.398Z,4.87
2018-07-04T13:46:18.729Z,4.70
2018-07-04T13:48:21.829Z,4.80
2018-07-04T13:50:25.219Z,5.70
2018-07-04T13:52:28.207Z,5.20
2018-07-04T13:54:30.713Z,10.20
2018-07-04T13:56:33.308Z,4.90
2018-07-04T13:58:35.742Z,7.70
2018-07-04T14:00:38.592Z,5.03
2018-07-04T14:02:41.188Z,5.50
2018-07-04T14:04:44.343Z,4.37
2018-07-04T14:06:47.555Z,4.70
2018-07-04T14:08:50.392Z,6.70
2018-07-04T14:10:53.131Z,4.47
2018-07-04T14:12:56.281Z,4.67
2018-07-04T14:14:59.183Z,5.50
2018-07-04T14:17:03.106Z,5.00
2018-07-04T14:19:05.936Z,5.37
2018-07-04T14:21:08.956Z,5.73
2018-07-04T14:23:13.590Z,5.87
2018-07-04T14:25:16.657Z,4.50
2018-07-04T14:27:19.598Z,6.17
2018-07-04T14:29:22.716Z,5.20
2018-07-04T14:31:25.707Z,7.73
2018-07-04T14:33:29.176Z,8.07
2018-07-04T14:35:32.533Z,6.17
2018-07-04T14:37:35.890Z,6.77
2018-07-04T14:39:38.944Z,5.92
2018-07-04T14:41:42.211Z,5.27
2018-07-04T14:43:45.457Z,5.80
2018-07-04T14:45:48.458Z,8.25
2018-07-04T14:47:51.815Z,6.83
2018-07-04T14:49:54.940Z,5.10
2018-07-04T14:51:58.223Z,6.37
2018-07-04T14:54:01.608Z,6.67
2018-07-04T14:56:04.582Z,5.77
2018-07-04T14:58:07.544Z,6.30
2018-07-04T15:00:10.641Z,5.80
2018-07-04T15:02:13.019Z,5.53
2018-07-04T15:04:16.238Z,6.60
2018-07-04T15:06:19.410Z,6.43
2018-07-04T15:08:22.562Z,5.77
2018-07-04T15:10:25.735Z,7.33
2018-07-04T15:12:28.842Z,6.73
2018-07-04T15:14:31.924Z,5.73
2018-07-04T15:16:35.249Z,5.90
2018-07-04T15:18:38.206Z,5.30
2018-07-04T15:20:41.395Z,5.97
2018-07-04T15:22:44.165Z,6.97
2018-07-04T15:24:47.464Z,6.87
2018-07-04T15:26:50.089Z,6.67
2018-07-04T15:28:52.965Z,6.03
2018-07-04T15:30:55.682Z,7.83
2018-07-04T15:32:58.773Z,6.10
2018-07-04T15:35:01.753Z,6.00
2018-07-04T15:37:04.744Z,12.87
2018-07-04T15:39:08.002Z,6.43
2018-07-04T15:41:11.221Z,5.60
2018-07-04T15:43:14.420Z,5.87
2018-07-04T15:45:17.394Z,6.87
2018-07-04T15:47:20.092Z,5.03
2018-07-04T15:49:22.760Z,6.20
2018-07-04T15:51:26.136Z,4.80
2018-07-04T15:53:29.026Z,9.50
2018-07-04T15:55:32.514Z,5.90
2018-07-04T15:57:35.602Z,6.23
2018-07-04T15:59:38.453Z,5.60
2018-07-04T16:01:41.245Z,4.67
2018-07-04T16:03:43.871Z,5.43
2018-07-04T16:05:46.591Z,4.77
2018-07-04T16:07:49.277Z,5.90
2018-07-04T16:09:52.171Z,5.77
2018-07-04T16:11:55.254Z,4.73
2018-07-04T16:13:57.936Z,5.73
2018-07-04T16:16:01.022Z,5.73
2018-07-04T16:18:05.036Z,5.47
2018-07-04T16:20:08.112Z,5.10
2018-07-04T16:22:11.101Z,4.57
2018-07-04T16:24:13.759Z,4.87
2018-07-04T16:26:16.752Z,4.43
2018-07-04T16:28:19.524Z,4.60
2018-07-04T16:30:22.442Z,6.83
2018-07-04T16:32:25.298Z,4.13
2018-07-04T16:34:28.377Z,5.77
2018-07-04T16:36:31.368Z,4.10
2018-07-04T16:38:34.239Z,5.20
2018-07-04T16:40:37.531Z,5.17
2018-07-04T16:42:40.442Z,5.80
2018-07-04T16:44:43.018Z,7.43
2018-07-04T16:46:45.970Z,4.53
2018-07-04T16:48:48.615Z,4.30
2018-07-04T16:50:51.339Z,6.67
2018-07-04T16:52:54.306Z,4.00
2018-07-04T16:54:57.080Z,4.43
2018-07-04T16:56:59.861Z,4.73
2018-07-04T16:59:02.700Z,5.40
2018-07-04T17:01:05.625Z,4.23
2018-07-04T17:03:08.609Z,4.40
2018-07-04T17:05:11.084Z,5.00
2018-07-04T17:07:13.838Z,4.40
2018-07-04T17:09:16.538Z,5.07
2018-07-04T17:11:19.437Z,4.27
2018-07-04T17:13:21.895Z,4.13
2018-07-04T17:15:24.773Z,6.10
2018-07-04T17:17:27.766Z,4.60
2018-07-04T17:19:30.435Z,4.30
2018-07-04T17:21:33.001Z,3.07
2018-07-04T17:23:35.999Z,4.57
2018-07-04T17:25:39.086Z,3.60
2018-07-04T17:27:41.960Z,3.77
2018-07-04T17:29:44.955Z,4.40
2018-07-04T17:31:49.596Z,4.57
2018-07-04T17:33:52.540Z,3.20
2018-07-04T17:35:55.528Z,4.20
2018-07-04T17:37:58.204Z,6.10
2018-07-04T17:40:01.015Z,3.87
2018-07-04T17:42:03.603Z,4.00
2018-07-04T17:44:06.561Z,4.43
2018-07-04T17:46:09.515Z,3.83
2018-07-04T17:48:12.287Z,3.80
2018-07-04T17:50:15.299Z,3.77
2018-07-04T17:52:20.177Z,4.80
2018-07-04T17:54:22.911Z,3.20
2018-07-04T17:56:26.291Z,4.42
2018-07-04T17:58:29.272Z,3.77
2018-07-04T18:00:36.893Z,3.10
2018-07-04T18:02:39.565Z,3.10
2018-07-04T18:04:42.287Z,3.43
2018-07-04T18:06:45.500Z,3.40
2018-07-04T18:08:48.496Z,3.37
2018-07-04T18:10:51.569Z,3.93
2018-07-04T18:12:54.550Z,3.20
2018-07-04T18:14:57.330Z,2.90
2018-07-04T18:17:00.722Z,3.30
2018-07-04T18:19:03.715Z,3.60
2018-07-04T18:21:06.658Z,3.90
2018-07-04T18:23:09.640Z,5.72
2018-07-04T18:25:19.580Z,3.25
2018-07-04T18:43:38.704Z,2.53
2018-07-04T18:45:45.635Z,5.08
2018-07-04T18:47:48.624Z,4.03
2018-07-04T18:49:51.755Z,3.73
2018-07-04T18:51:54.825Z,3.13
2018-07-04T18:53:58.111Z,2.43
2018-07-04T18:56:00.734Z,2.60
2018-07-04T18:58:03.478Z,2.50
2018-07-04T19:00:06.449Z,2.57
2018-07-04T19:02:09.576Z,3.17
2018-07-04T19:04:12.309Z,3.10
2018-07-04T19:06:15.305Z,2.50
2018-07-04T19:08:18.127Z,3.50
2018-07-04T19:10:21.055Z,2.90
2018-07-04T19:12:24.756Z,3.13
2018-07-04T19:14:27.858Z,4.40
2018-07-04T19:16:30.707Z,3.67
2018-07-04T19:18:33.561Z,2.77
2018-07-04T19:20:36.492Z,4.07
2018-07-04T19:22:39.479Z,2.70
2018-07-04T19:24:42.448Z,3.70
2018-07-04T19:26:45.459Z,3.10
2018-07-04T19:28:48.316Z,2.80
2018-07-04T19:30:50.990Z,2.83
2018-07-04T19:32:53.648Z,2.70
2018-07-04T19:34:56.562Z,2.43
2018-07-04T19:36:59.535Z,2.50
2018-07-04T19:39:02.161Z,3.47
2018-07-04T19:41:05.710Z,2.87
2018-07-04T19:43:08.592Z,4.57
2018-07-04T19:45:11.566Z,2.53
2018-07-04T19:47:14.551Z,2.83
2018-07-04T19:49:17.571Z,2.40
2018-07-04T19:51:20.313Z,3.30
2018-07-04T19:53:22.977Z,4.10
2018-07-04T19:55:26.840Z,3.47
2018-07-04T19:57:29.993Z,2.30
2018-07-04T19:59:32.941Z,3.40
2018-07-04T20:01:35.661Z,3.50
2018-07-04T20:03:38.629Z,3.40
2018-07-04T20:05:41.504Z,2.43
2018-07-04T20:07:44.497Z,3.33
2018-07-04T20:09:47.277Z,2.73
2018-07-04T20:11:49.872Z,3.60
2018-07-04T20:13:52.713Z,3.80
2018-07-04T20:15:55.638Z,4.00
2018-07-04T20:17:58.593Z,3.00
2018-07-04T20:20:01.676Z,3.83
2018-07-04T20:22:04.972Z,2.53
2018-07-04T20:24:07.747Z,3.80
2018-07-04T20:26:10.716Z,2.80
2018-07-04T20:28:13.299Z,3.67
2018-07-04T20:30:16.287Z,4.03
2018-07-04T20:32:19.096Z,2.50
2018-07-04T20:34:21.952Z,2.40
2018-07-04T20:36:24.929Z,2.97
2018-07-04T20:38:28.126Z,2.77
2018-07-04T20:40:31.426Z,3.20
2018-07-04T20:42:34.729Z,3.30
2018-07-04T20:44:37.678Z,3.00
2018-07-04T20:46:40.764Z,4.93
2018-07-04T20:48:43.541Z,2.33
2018-07-04T20:50:46.438Z,2.47
2018-07-04T20:52:49.420Z,2.83
2018-07-04T20:54:52.261Z,2.50
2018-07-04T20:56:55.065Z,2.50
2018-07-04T20:58:58.133Z,2.80
2018-07-04T21:01:00.806Z,2.87
2018-07-04T21:03:03.322Z,2.33
2018-07-04T21:05:06.230Z,3.00
2018-07-04T21:07:08.782Z,2.10
2018-07-04T21:09:11.434Z,3.77
2018-07-04T21:11:14.318Z,2.83
2018-07-04T21:13:17.197Z,2.23
2018-07-04T21:15:19.997Z,1.95
2018-07-04T21:17:22.446Z,1.70
2018-07-04T21:19:25.218Z,2.40
2018-07-04T21:21:28.419Z,4.77
2018-07-04T21:23:31.507Z,3.27
2018-07-04T21:25:34.292Z,2.50
2018-07-04T21:27:37.279Z,2.50
2018-07-04T21:29:40.075Z,2.50
2018-07-04T21:31:42.633Z,2.97
2018-07-04T21:33:47.040Z,2.40
2018-07-04T21:35:49.978Z,3.60
2018-07-04T21:37:52.896Z,2.67
2018-07-04T21:39:55.581Z,4.17
2018-07-04T21:42:01.901Z,2.07
2018-07-04T21:44:05.431Z,2.23
2018-07-04T21:46:08.213Z,2.37
2018-07-04T21:48:10.865Z,2.77
2018-07-04T21:50:13.765Z,3.30
2018-07-04T21:52:16.644Z,1.97
2018-07-04T21:54:19.517Z,2.37
2018-07-04T21:56:23.745Z,3.03
2018-07-04T21:58:26.776Z,2.90
2018-07-04T22:00:29.607Z,2.40
2018-07-04T22:02:32.705Z,2.93
2018-07-04T22:04:35.743Z,2.30
2018-07-04T22:06:38.670Z,2.30
2018-07-04T22:08:41.942Z,2.90
2018-07-04T22:10:45.254Z,2.40
2018-07-04T22:12:48.229Z,2.30
2018-07-04T22:14:51.138Z,3.20
2018-07-04T22:16:54.736Z,3.40
2018-07-04T22:18:57.666Z,4.13
2018-07-04T22:21:01.264Z,6.63
2018-07-04T22:23:04.265Z,3.40
2018-07-04T22:25:07.248Z,3.87
2018-07-04T22:27:10.044Z,4.03
2018-07-04T22:29:13.303Z,3.67
2018-07-04T22:31:15.989Z,5.40
2018-07-04T22:33:18.641Z,3.60
2018-07-04T22:35:21.421Z,3.40
2018-07-04T22:37:24.164Z,3.23
2018-07-04T22:39:26.971Z,3.60
2018-07-04T22:41:30.029Z,3.20
2018-07-04T22:43:32.865Z,4.00
2018-07-04T22:45:35.649Z,3.33
2018-07-04T22:47:38.449Z,3.13
2018-07-04T22:49:41.424Z,3.27
2018-07-04T22:51:44.625Z,5.77
2018-07-04T22:53:47.481Z,3.27
2018-07-04T22:55:50.424Z,3.27
2018-07-04T22:57:53.273Z,3.33
2018-07-04T22:59:56.030Z,4.43
2018-07-04T23:01:59.216Z,3.60
2018-07-04T23:04:02.172Z,3.53
2018-07-04T23:06:04.984Z,3.10
2018-07-04T23:08:08.341Z,5.33
2018-07-04T23:10:11.248Z,4.63
2018-07-04T23:12:14.068Z,7.20
2018-07-04T23:14:16.975Z,7.65
2018-07-04T23:16:19.934Z,8.40
2018-07-04T23:18:22.869Z,9.30
2018-07-04T23:20:25.862Z,7.40
2018-07-04T23:22:28.645Z,11.57
2018-07-04T23:24:31.618Z,14.10
2018-07-04T23:26:34.924Z,7.00
2018-07-04T23:28:37.529Z,6.07
2018-07-04T23:30:40.360Z,10.53
2018-07-04T23:32:43.561Z,4.07
2018-07-04T23:34:46.431Z,11.33
2018-07-04T23:36:49.330Z,5.70
2018-07-04T23:38:52.501Z,6.93
2018-07-04T23:40:55.284Z,4.93
2018-07-04T23:42:58.477Z,7.87
2018-07-04T23:45:01.558Z,6.40
2018-07-04T23:47:04.240Z,6.73
2018-07-04T23:49:08.306Z,5.77
2018-07-04T23:51:11.218Z,3.80
2018-07-04T23:53:14.319Z,5.37
2018-07-04T23:55:17.299Z,4.63
2018-07-04T23:57:20.144Z,4.00
2018-07-04T23:59:22.870Z,3.47
